Time;durP1;ratioP1;P1;durP2;ratioP2;P2;SDS_P1;SDS_P2;PMS_P1;PMS_P2;Temp;Humidity;BMP_temperature;BMP_pressure;BME280_temperature;BME280_humidity;BME280_pressure;Samples;Min_cycle;Max_cycle;Signal;HPM_P1;HPM_P2
2023/09/09 00:01:08;;;;;;;175.80;167.60;;;;;;;30.03;44.88;101498.75;5051072;28;20516;-72
2023/09/09 00:03:34;;;;;;;180.20;171.75;;;;;;;30.01;44.83;101509.44;5032540;28;20033;-72
2023/09/09 00:06:11;;;;;;;174.35;166.07;;;;;;;29.97;44.73;101506.59;5050563;28;20465;-72
2023/09/09 00:08:37;;;;;;;175.18;167.27;;;;;;;29.95;44.82;101506.13;5034553;28;20425;-72
2023/09/09 00:11:03;;;;;;;171.02;162.68;;;;;;;29.93;44.69;101511.22;5050502;28;20520;-72
2023/09/09 00:13:28;;;;;;;173.05;164.93;;;;;;;29.89;44.73;101502.78;5046294;28;20388;-72
2023/09/09 00:15:54;;;;;;;171.35;163.15;;;;;;;29.88;45.06;101505.94;5038382;28;20103;-74
2023/09/09 00:18:19;;;;;;;174.15;166.13;;;;;;;29.85;44.82;101503.84;5040538;28;20078;-73
2023/09/09 00:20:45;;;;;;;176.60;168.18;;;;;;;29.82;44.85;101501.78;5050170;28;20408;-74
2023/09/09 00:23:10;;;;;;;174.68;166.35;;;;;;;29.79;44.86;101506.09;5038758;28;20087;-74
2023/09/09 00:25:41;;;;;;;171.98;163.82;;;;;;;29.77;44.81;101506.44;5051112;28;20056;-73
2023/09/09 00:28:07;;;;;;;169.90;161.65;;;;;;;29.75;44.66;101499.59;5039191;28;20139;-74
2023/09/09 00:30:33;;;;;;;172.30;164.02;;;;;;;29.72;44.69;101501.13;5051236;28;20032;-75
2023/09/09 00:32:59;;;;;;;174.50;166.18;;;;;;;29.70;44.98;101502.66;5042131;28;20063;-74
2023/09/09 00:35:26;;;;;;;172.80;164.48;;;;;;;29.66;44.70;101497.00;5051013;28;20041;-73
2023/09/09 00:37:51;;;;;;;173.30;164.90;;;;;;;29.64;44.75;101496.50;5038065;28;20040;-74
2023/09/09 00:40:17;;;;;;;167.95;159.85;;;;;;;29.61;44.90;101491.66;5051474;28;20029;-74
2023/09/09 00:42:42;;;;;;;173.50;164.88;;;;;;;29.60;44.81;101492.00;5040528;28;20120;-74
2023/09/09 00:45:08;;;;;;;175.15;166.65;;;;;;;29.57;44.85;101490.72;5036642;28;20465;-74
2023/09/09 00:47:34;;;;;;;173.27;164.88;;;;;;;29.54;44.79;101488.66;5040636;28;20436;-74
2023/09/09 00:50:00;;;;;;;168.48;160.38;;;;;;;29.52;44.86;101488.19;5050282;28;20481;-74
2023/09/09 00:52:26;;;;;;;171.43;163.13;;;;;;;29.49;45.08;101486.94;5041546;28;20029;-74
2023/09/09 00:54:52;;;;;;;171.68;163.30;;;;;;;29.47;44.80;101480.91;5035984;28;20032;-75
2023/09/09 00:57:18;;;;;;;173.30;164.45;;;;;;;29.45;44.83;101483.22;5041451;28;20508;-74
2023/09/09 00:59:43;;;;;;;175.38;166.75;;;;;;;29.43;45.21;101487.53;5050046;28;20423;-74
2023/09/09 01:02:09;;;;;;;172.02;163.27;;;;;;;29.40;44.94;101486.25;5040919;28;20498;-74
2023/09/09 01:04:34;;;;;;;173.32;164.38;;;;;;;29.37;45.01;101478.63;5037795;28;20064;-74
2023/09/09 01:07:01;;;;;;;172.55;163.85;;;;;;;29.34;45.04;101480.16;5045759;28;20112;-75
2023/09/09 01:09:27;;;;;;;172.27;163.70;;;;;;;29.33;45.01;101488.84;5051290;28;20033;-74
2023/09/09 01:11:52;;;;;;;174.13;165.15;;;;;;;29.30;44.82;101486.75;5049202;28;20040;-74
2023/09/09 01:14:18;;;;;;;174.18;165.65;;;;;;;29.28;45.02;101487.13;5036370;28;20029;-74
2023/09/09 01:16:46;;;;;;;168.18;159.55;;;;;;;29.28;44.92;101486.31;5037652;28;20049;-75
2023/09/09 01:19:15;;;;;;;173.13;164.35;;;;;;;29.24;44.85;101488.19;5051068;28;20116;-74
2023/09/09 01:21:43;;;;;;;169.48;160.90;;;;;;;29.22;44.92;101482.16;5045603;28;20478;-73
2023/09/09 01:24:15;;;;;;;170.27;161.85;;;;;;;29.20;44.73;101484.47;5044179;28;20029;-74
2023/09/09 01:26:44;;;;;;;173.45;164.80;;;;;;;29.17;45.08;101482.41;5044914;28;20029;-73
2023/09/09 01:29:09;;;;;;;171.23;162.63;;;;;;;29.13;44.75;101482.28;5041715;28;20094;-74
2023/09/09 01:31:35;;;;;;;174.25;165.02;;;;;;;29.11;44.91;101487.41;5047517;28;20037;-75
2023/09/09 01:34:00;;;;;;;170.35;161.70;;;;;;;29.09;45.02;101492.50;5048415;28;20461;-74
2023/09/09 01:36:26;;;;;;;173.32;164.05;;;;;;;29.08;45.04;101490.88;5048248;28;20029;-74
2023/09/09 01:38:51;;;;;;;173.85;164.75;;;;;;;29.04;44.77;101484.38;5039202;28;20375;-75
2023/09/09 01:41:16;;;;;;;163.93;155.65;;;;;;;29.02;45.05;101484.72;5045558;28;20041;-74
2023/09/09 01:43:42;;;;;;;170.95;161.80;;;;;;;28.99;45.09;101485.41;5052635;28;20040;-74
2023/09/09 01:46:07;;;;;;;171.60;162.57;;;;;;;28.98;45.26;101486.59;5036516;28;20121;-75
2023/09/09 01:48:33;;;;;;;175.27;165.98;;;;;;;28.96;45.01;101483.34;5048425;28;20092;-74
2023/09/09 01:50:58;;;;;;;175.10;165.73;;;;;;;28.94;44.95;101482.88;5054514;28;20464;-73
2023/09/09 01:53:24;;;;;;;171.90;162.70;;;;;;;28.91;45.03;101483.59;5039004;28;20478;-74
2023/09/09 01:55:49;;;;;;;171.88;162.45;;;;;;;28.90;44.92;101488.34;5037545;28;20040;-74
2023/09/09 01:58:15;;;;;;;169.50;160.27;;;;;;;28.88;45.06;101489.84;5035256;28;20033;-74
2023/09/09 02:00:41;;;;;;;171.40;161.88;;;;;;;28.86;45.04;101490.19;5051919;28;20044;-74
2023/09/09 02:03:07;;;;;;;173.57;164.07;;;;;;;28.84;45.01;101489.72;5044529;28;20136;-75
2023/09/09 02:05:33;;;;;;;172.77;162.55;;;;;;;28.83;45.03;101492.88;5053573;28;20198;-74
2023/09/09 02:07:58;;;;;;;172.98;162.73;;;;;;;28.81;44.92;101490.44;5040235;28;20038;-74
2023/09/09 02:10:23;;;;;;;174.52;165.10;;;;;;;28.79;44.91;101492.75;5036546;28;20060;-74
2023/09/09 02:12:49;;;;;;;179.93;169.77;;;;;;;28.77;44.89;101494.25;5038757;28;20048;-74
2023/09/09 02:15:14;;;;;;;172.95;162.80;;;;;;;28.74;45.09;101492.19;5039849;28;20091;-73
2023/09/09 02:17:40;;;;;;;168.93;159.77;;;;;;;28.71;45.05;101496.47;5035103;28;20033;-75
2023/09/09 02:20:06;;;;;;;171.10;161.57;;;;;;;28.71;45.03;101490.09;5053388;28;20025;-74
2023/09/09 02:22:32;;;;;;;171.60;162.05;;;;;;;28.67;45.22;101488.00;5026220;28;20045;-74
2023/09/09 02:24:57;;;;;;;170.15;160.68;;;;;;;28.66;45.22;101488.34;5052409;28;20342;-76
2023/09/09 02:27:23;;;;;;;178.70;168.75;;;;;;;28.64;44.95;101490.66;5046958;28;20495;-74
2023/09/09 02:29:49;;;;;;;165.98;156.60;;;;;;;28.63;44.89;101481.53;5045733;28;20094;-74
2023/09/09 02:32:16;;;;;;;168.80;158.95;;;;;;;28.60;45.01;101481.41;5048878;28;20465;-74
2023/09/09 02:34:41;;;;;;;168.55;158.95;;;;;;;28.56;45.17;101478.50;5053881;28;20033;-74
2023/09/09 02:37:29;;;;;;;169.20;159.13;;;;;;;28.54;45.15;101486.38;5042312;28;21385;-74
2023/09/09 02:39:54;;;;;;;171.02;161.23;;;;;;;28.52;45.19;101483.13;5047185;28;20045;-73
2023/09/09 02:42:22;;;;;;;177.05;166.65;;;;;;;28.51;44.87;101489.88;5043698;28;20041;-74
2023/09/09 02:44:51;;;;;;;169.02;159.43;;;;;;;28.48;45.14;101479.44;5039283;28;20116;-74
2023/09/09 02:47:17;;;;;;;168.18;158.18;;;;;;;28.45;44.73;101478.16;5044669;28;20072;-74
2023/09/09 02:49:43;;;;;;;165.52;156.13;;;;;;;28.44;45.05;101476.53;5036497;28;20038;-74
2023/09/09 02:52:09;;;;;;;170.43;160.50;;;;;;;28.42;45.15;101476.03;5048907;28;20044;-75
2023/09/09 02:54:36;;;;;;;171.27;161.25;;;;;;;28.40;45.19;101470.03;5051115;28;20065;-74
2023/09/09 02:57:03;;;;;;;168.45;158.77;;;;;;;28.40;45.05;101472.81;5032406;28;20029;-76
2023/09/09 02:59:30;;;;;;;175.00;165.17;;;;;;;28.37;45.08;101467.13;5051311;28;20036;-74
2023/09/09 03:01:55;;;;;;;171.32;160.98;;;;;;;28.36;45.12;101465.50;5043790;28;20045;-74
2023/09/09 03:04:20;;;;;;;168.63;158.48;;;;;;;28.34;45.22;101468.63;5048868;28;20037;-74
2023/09/09 03:06:46;;;;;;;174.75;164.63;;;;;;;28.33;44.84;101469.78;5052624;28;20454;-74
2023/09/09 03:09:14;;;;;;;172.65;161.57;;;;;;;28.31;45.09;101466.53;5051833;28;20114;-74
2023/09/09 03:11:39;;;;;;;169.23;159.25;;;;;;;28.28;45.05;101467.25;5051085;28;20033;-74
2023/09/09 03:14:05;;;;;;;168.10;158.50;;;;;;;28.26;45.12;101464.81;5052501;28;20388;-74
2023/09/09 03:16:30;;;;;;;170.00;159.60;;;;;;;28.25;44.99;101470.72;5040680;28;20137;-74
2023/09/09 03:18:56;;;;;;;170.93;160.73;;;;;;;28.22;45.04;101468.59;5050120;28;20067;-74
2023/09/09 03:21:21;;;;;;;171.57;161.88;;;;;;;28.20;45.10;101465.38;5038843;28;20474;-75
2023/09/09 03:23:46;;;;;;;165.93;155.85;;;;;;;28.18;44.99;101465.72;5048912;28;20575;-75
2023/09/09 03:26:18;;;;;;;173.30;163.30;;;;;;;28.15;45.31;101471.13;5051361;28;20044;-74
2023/09/09 03:28:47;;;;;;;169.00;159.05;;;;;;;28.14;45.12;101463.97;5042954;28;20139;-74
2023/09/09 03:31:12;;;;;;;;;;;;;;;28.07;45.17;101481.19;5044479;28;20036;-74
2023/09/09 03:33:38;;;;;;;169.15;159.10;;;;;;;28.07;45.12;101475.66;5042067;28;20000;-74
2023/09/09 03:36:04;;;;;;;164.65;154.50;;;;;;;28.04;45.14;101473.56;5048426;28;20132;-74
2023/09/09 03:38:30;;;;;;;162.82;152.77;;;;;;;28.03;45.02;101467.19;5040027;28;20068;-74
2023/09/09 03:40:55;;;;;;;166.35;156.43;;;;;;;28.02;45.36;101481.41;5052057;28;20108;-75
2023/09/09 03:43:21;;;;;;;170.15;159.98;;;;;;;28.00;45.26;101464.31;5046815;28;20044;-74
2023/09/09 03:45:46;;;;;;;166.77;157.15;;;;;;;27.98;45.02;101475.75;5036186;28;20069;-75
2023/09/09 03:48:12;;;;;;;170.65;160.70;;;;;;;27.96;44.92;101472.50;5040974;28;20468;-75
2023/09/09 03:50:37;;;;;;;169.80;159.75;;;;;;;27.93;45.29;101470.41;5034548;28;20043;-74
2023/09/09 03:53:03;;;;;;;169.98;159.60;;;;;;;27.92;45.28;101473.53;5043144;28;20075;-74
2023/09/09 03:55:28;;;;;;;164.13;153.98;;;;;;;27.89;45.06;101480.56;5050361;28;20388;-75
2023/09/09 03:57:53;;;;;;;166.15;156.23;;;;;;;27.87;45.32;101485.69;5046893;28;20044;-75
2023/09/09 04:00:19;;;;;;;168.00;158.07;;;;;;;27.86;45.13;101486.81;5051776;28;20461;-75
2023/09/09 04:02:45;;;;;;;162.27;152.88;;;;;;;27.83;45.22;101484.75;5044926;28;20045;-75
2023/09/09 04:05:10;;;;;;;163.70;153.85;;;;;;;27.82;45.16;101480.31;5050461;28;20060;-74
2023/09/09 04:07:36;;;;;;;164.18;154.40;;;;;;;27.79;45.16;101476.25;5045911;28;20128;-74
2023/09/09 04:10:05;;;;;;;165.55;155.80;;;;;;;27.76;45.28;101476.13;5051004;28;20084;-74
2023/09/09 04:12:31;;;;;;;166.38;156.63;;;;;;;27.74;45.22;101478.41;5044899;28;20119;-75
2023/09/09 04:14:57;;;;;;;162.82;153.52;;;;;;;27.72;45.20;101477.94;5051535;28;20166;-73
2023/09/09 04:17:22;;;;;;;164.02;154.80;;;;;;;27.68;45.30;101479.81;5037654;28;20053;-75
2023/09/09 04:19:48;;;;;;;157.35;148.23;;;;;;;27.64;45.32;101474.09;5040135;28;20069;-74
2023/09/09 04:22:13;;;;;;;163.98;154.85;;;;;;;27.61;45.23;101481.16;5041275;28;20036;-75
2023/09/09 04:24:39;;;;;;;157.05;147.88;;;;;;;27.58;45.33;101487.38;5049715;28;20033;-74
2023/09/09 04:27:04;;;;;;;160.45;151.13;;;;;;;27.57;45.13;101487.75;5051172;28;20044;-74
2023/09/09 04:29:30;;;;;;;159.38;150.15;;;;;;;27.54;45.30;101478.13;5040136;28;20124;-74
2023/09/09 04:31:55;;;;;;;155.45;146.95;;;;;;;27.51;45.13;101483.53;5034976;28;20056;-74
2023/09/09 04:34:21;;;;;;;160.20;151.60;;;;;;;27.49;44.95;101483.88;5051532;28;20041;-74
2023/09/09 04:36:46;;;;;;;162.30;153.27;;;;;;;27.47;45.42;101486.19;5051539;28;20033;-74
2023/09/09 04:39:15;;;;;;;153.63;145.02;;;;;;;27.45;45.20;101487.69;5033653;28;20552;-74
2023/09/09 04:41:42;;;;;;;163.93;154.48;;;;;;;27.41;45.29;101491.13;5051406;28;20036;-74
2023/09/09 04:44:08;;;;;;;157.88;149.13;;;;;;;27.40;45.37;101491.47;5051089;28;20028;-74
2023/09/09 04:46:33;;;;;;;151.98;143.23;;;;;;;27.38;45.34;101496.53;5037983;28;20188;-74
2023/09/09 04:48:59;;;;;;;153.98;145.18;;;;;;;27.37;45.37;101497.72;5046765;28;20132;-73
2023/09/09 04:51:24;;;;;;;156.05;147.68;;;;;;;27.34;45.39;101501.97;5048361;28;20052;-74
2023/09/09 04:53:50;;;;;;;152.68;144.60;;;;;;;27.33;45.06;101505.06;5048913;28;20029;-74
2023/09/09 04:56:16;;;;;;;160.32;152.00;;;;;;;27.31;45.25;101507.38;5043842;28;20034;-73
2023/09/09 04:58:41;;;;;;;153.90;145.45;;;;;;;27.29;45.69;101510.50;5045677;28;20472;-74
2023/09/09 05:01:07;;;;;;;154.88;146.52;;;;;;;27.26;45.41;101502.03;5033130;28;20033;-73
2023/09/09 05:03:32;;;;;;;154.55;146.30;;;;;;;27.25;45.26;101511.50;5033932;28;20048;-74
2023/09/09 05:05:58;;;;;;;150.77;142.68;;;;;;;27.21;45.59;101505.81;5037949;28;20044;-74
2023/09/09 05:08:23;;;;;;;150.82;142.70;;;;;;;27.20;45.46;101506.97;5050430;28;20041;-74
2023/09/09 05:10:48;;;;;;;152.18;143.88;;;;;;;27.19;45.40;101505.34;5046050;28;20037;-74
2023/09/09 05:13:14;;;;;;;154.50;146.15;;;;;;;27.16;45.43;101501.22;5043590;28;20067;-74
2023/09/09 05:15:39;;;;;;;152.48;144.02;;;;;;;27.14;45.23;101498.00;5047158;28;20416;-74
2023/09/09 05:18:05;;;;;;;154.55;145.85;;;;;;;27.13;45.57;101503.88;5045271;28;20087;-74
2023/09/09 05:20:30;;;;;;;154.90;146.45;;;;;;;27.10;45.40;101499.81;5054482;28;20488;-73
2023/09/09 05:22:55;;;;;;;153.88;145.30;;;;;;;27.07;45.48;101497.72;5050365;28;20136;-74
2023/09/09 05:25:21;;;;;;;152.02;143.68;;;;;;;27.06;45.45;101496.09;5054403;28;20029;-73
2023/09/09 05:27:46;;;;;;;150.23;141.77;;;;;;;27.05;45.68;101504.75;5044420;28;20037;-74
2023/09/09 05:30:12;;;;;;;151.60;143.35;;;;;;;27.03;45.43;101502.31;5048545;28;20124;-74
2023/09/09 05:32:37;;;;;;;149.02;140.98;;;;;;;27.01;45.50;101504.59;5054513;28;20056;-74
2023/09/09 05:35:04;;;;;;;150.13;142.20;;;;;;;27.00;45.54;101514.09;5053230;28;20120;-74
2023/09/09 05:37:30;;;;;;;150.82;142.65;;;;;;;26.98;45.18;101510.81;5044308;28;20139;-75
2023/09/09 05:39:56;;;;;;;149.20;140.95;;;;;;;26.96;45.23;101521.44;5053337;28;20038;-74
2023/09/09 05:42:22;;;;;;;148.35;140.25;;;;;;;26.94;45.49;101515.44;5048699;28;20241;-74
2023/09/09 05:44:48;;;;;;;150.07;142.23;;;;;;;26.91;45.46;101521.63;5054381;28;20489;-73
2023/09/09 05:47:13;;;;;;;150.68;142.25;;;;;;;26.90;45.58;101522.78;5038505;28;20040;-75
2023/09/09 05:49:38;;;;;;;148.40;140.20;;;;;;;26.88;45.28;101519.53;5053498;28;20040;-74
2023/09/09 05:52:04;;;;;;;146.02;138.05;;;;;;;26.85;45.44;101521.00;5041327;28;20036;-73
2023/09/09 05:54:30;;;;;;;146.85;138.88;;;;;;;26.83;45.48;101520.53;5052866;28;20037;-74
2023/09/09 05:56:56;;;;;;;148.13;140.02;;;;;;;26.81;45.51;101519.25;5038958;28;20489;-76
2023/09/09 05:59:21;;;;;;;153.73;144.88;;;;;;;26.80;45.45;101528.72;5050632;28;20064;-76
2023/09/09 06:01:47;;;;;;;151.95;143.27;;;;;;;26.77;45.37;101528.22;5051056;28;20136;-75
2023/09/09 06:04:15;;;;;;;156.45;147.20;;;;;;;26.76;45.64;101532.16;5053439;28;20052;-75
2023/09/09 06:06:40;;;;;;;;;;;;;;;26.69;45.25;101537.41;5049159;28;20029;-75
2023/09/09 06:09:06;;;;;;;149.73;141.27;;;;;;;26.69;45.42;101531.88;5042908;28;20304;-73
2023/09/09 06:11:31;;;;;;;141.80;133.77;;;;;;;26.68;45.43;101532.19;5050863;28;20218;-75
2023/09/09 06:13:57;;;;;;;148.23;139.55;;;;;;;26.66;45.34;101538.06;5045207;28;20033;-75
2023/09/09 06:16:22;;;;;;;146.20;138.00;;;;;;;26.65;45.32;101541.16;5044750;28;20056;-74
2023/09/09 06:18:47;;;;;;;143.80;135.60;;;;;;;26.64;45.30;101542.31;5044006;28;20028;-76
2023/09/09 06:21:13;;;;;;;143.45;135.50;;;;;;;26.61;45.22;101538.25;5046563;28;20394;-74
2023/09/09 06:23:38;;;;;;;149.07;140.07;;;;;;;26.60;45.55;101542.16;5039749;28;20079;-75
2023/09/09 06:26:03;;;;;;;144.82;136.48;;;;;;;26.59;45.53;101545.28;5053249;28;20037;-74
2023/09/09 06:28:29;;;;;;;144.30;136.63;;;;;;;26.57;45.42;101545.59;5043728;28;20426;-75
2023/09/09 06:30:54;;;;;;;142.73;134.55;;;;;;;26.57;45.61;101544.81;5052234;28;20041;-75
2023/09/09 06:33:20;;;;;;;146.52;138.13;;;;;;;26.54;45.21;101543.50;5038754;28;20044;-74
2023/09/09 06:35:49;;;;;;;141.27;133.30;;;;;;;26.54;45.46;101537.97;5053229;28;20040;-74
2023/09/09 06:38:15;;;;;;;144.77;136.70;;;;;;;26.53;45.41;101550.19;5035336;28;20033;-74
2023/09/09 06:40:43;;;;;;;142.45;134.27;;;;;;;26.50;45.27;101548.84;5052651;28;20037;-74
2023/09/09 06:43:09;;;;;;;143.98;136.25;;;;;;;26.49;45.24;101551.97;5029757;28;20041;-73
2023/09/09 06:45:34;;;;;;;144.15;136.07;;;;;;;26.48;45.33;101544.78;5037183;28;20041;-74
2023/09/09 06:48:00;;;;;;;143.05;135.10;;;;;;;26.46;45.46;101549.84;5049889;28;20037;-75
2023/09/09 06:50:25;;;;;;;144.00;135.68;;;;;;;26.45;45.51;101556.53;5051098;28;20107;-76
2023/09/09 06:52:50;;;;;;;142.85;134.73;;;;;;;26.44;45.55;101557.69;5045642;28;20040;-74
2023/09/09 06:55:16;;;;;;;143.07;135.20;;;;;;;26.42;45.53;101558.00;5035467;28;20061;-74
2023/09/09 06:57:41;;;;;;;142.27;134.27;;;;;;;26.41;45.63;101558.31;5044403;28;20033;-74
2023/09/09 07:00:08;;;;;;;137.70;129.88;;;;;;;26.39;45.66;101555.09;5052141;28;20045;-73
2023/09/09 07:02:33;;;;;;;139.32;131.48;;;;;;;26.39;45.34;101564.22;5042117;28;20137;-73
2023/09/09 07:04:59;;;;;;;139.85;131.73;;;;;;;26.38;45.48;101562.56;5051074;28;20460;-73
2023/09/09 07:07:24;;;;;;;140.85;132.90;;;;;;;26.36;45.73;101561.28;5033240;28;20537;-73
2023/09/09 07:09:49;;;;;;;138.60;130.63;;;;;;;26.36;45.22;101564.88;5048591;28;20359;-73
2023/09/09 07:12:15;;;;;;;137.98;130.23;;;;;;;26.36;45.29;101572.34;5041884;28;20505;-73
2023/09/09 07:14:40;;;;;;;140.10;132.40;;;;;;;26.35;45.48;101577.09;5052964;28;20044;-73
2023/09/09 07:17:05;;;;;;;142.93;135.07;;;;;;;26.34;45.38;101581.00;5046388;28;20557;-73
2023/09/09 07:19:31;;;;;;;138.07;130.32;;;;;;;26.34;45.36;101569.94;5052594;28;20041;-73
2023/09/09 07:21:56;;;;;;;136.95;129.55;;;;;;;26.33;45.28;101573.84;5046092;28;20029;-73
2023/09/09 07:24:22;;;;;;;138.43;130.57;;;;;;;26.33;45.51;101573.84;5049781;28;20497;-73
2023/09/09 07:26:48;;;;;;;134.23;127.15;;;;;;;26.32;45.34;101581.34;5045652;28;20025;-73
2023/09/09 07:29:13;;;;;;;137.30;130.00;;;;;;;26.32;45.52;101578.56;5047454;28;20052;-73
2023/09/09 07:31:39;;;;;;;132.52;125.60;;;;;;;26.33;45.51;101579.38;5048376;28;20108;-73
2023/09/09 07:34:05;;;;;;;138.65;131.20;;;;;;;26.33;45.34;101577.44;5043092;28;20037;-73
2023/09/09 07:36:30;;;;;;;135.25;127.75;;;;;;;26.33;45.75;101582.97;5048246;28;20156;-73
2023/09/09 07:38:56;;;;;;;135.20;128.00;;;;;;;26.36;45.47;101586.22;5036542;28;20047;-73
2023/09/09 07:41:21;;;;;;;136.93;129.50;;;;;;;26.34;45.12;101587.34;5045613;28;20025;-73
2023/09/09 07:43:48;;;;;;;136.07;129.05;;;;;;;26.36;45.56;101581.50;5029423;28;20449;-73
2023/09/09 07:46:14;;;;;;;135.35;128.27;;;;;;;26.36;45.20;101587.03;5041517;28;20057;-73
2023/09/09 07:48:40;;;;;;;134.93;128.20;;;;;;;26.36;45.30;101587.03;5043264;28;20473;-73
2023/09/09 07:51:05;;;;;;;133.25;126.43;;;;;;;26.37;45.59;101591.44;5052646;28;20033;-73
2023/09/09 07:53:31;;;;;;;134.55;127.43;;;;;;;26.37;45.44;101596.16;5042699;28;20529;-73
2023/09/09 07:55:57;;;;;;;132.90;125.82;;;;;;;26.37;45.16;101596.97;5045410;28;20052;-73
2023/09/09 07:58:22;;;;;;;132.25;125.47;;;;;;;26.38;45.36;101597.78;5038726;28;20454;-73
2023/09/09 08:00:58;;;;;;;131.52;124.45;;;;;;;26.39;45.53;101596.66;5048420;28;20040;-73
2023/09/09 08:03:23;;;;;;;136.80;129.52;;;;;;;26.41;45.47;101599.88;5032204;28;20053;-73
2023/09/09 08:05:53;;;;;;;135.93;128.57;;;;;;;26.43;45.47;101603.94;5051025;28;20112;-73
2023/09/09 08:08:19;;;;;;;132.80;125.63;;;;;;;26.46;45.55;101605.25;5047824;28;20036;-73
2023/09/09 08:10:44;;;;;;;137.82;130.82;;;;;;;26.47;45.61;101604.94;5051065;28;20082;-73
2023/09/09 08:13:09;;;;;;;137.15;129.93;;;;;;;26.48;45.47;101608.50;5035443;28;20374;-73
2023/09/09 08:15:35;;;;;;;134.05;127.05;;;;;;;26.50;45.33;101600.69;5048979;28;20120;-73
2023/09/09 08:18:00;;;;;;;129.60;123.10;;;;;;;26.52;45.45;101606.72;5044341;28;20466;-73
2023/09/09 08:20:25;;;;;;;134.52;127.57;;;;;;;26.52;45.53;101607.56;5045115;28;20120;-74
2023/09/09 08:22:51;;;;;;;131.55;124.88;;;;;;;26.53;45.68;101605.59;5030297;28;20037;-73
2023/09/09 08:25:16;;;;;;;131.18;124.38;;;;;;;26.53;45.94;101609.19;5027756;28;20439;-73
2023/09/09 08:27:42;;;;;;;137.05;130.00;;;;;;;26.53;46.02;101606.44;5038261;28;20048;-73
2023/09/09 08:30:07;;;;;;;140.02;132.40;;;;;;;26.55;46.17;101603.31;5041165;28;20580;-73
2023/09/09 08:32:34;;;;;;;134.50;127.63;;;;;;;26.58;45.78;101610.94;5037110;28;20422;-72
2023/09/09 08:35:00;;;;;;;135.07;128.25;;;;;;;26.61;46.11;101603.94;5051411;28;20040;-73
2023/09/09 08:37:25;;;;;;;139.30;131.88;;;;;;;26.63;46.07;101605.22;5040679;28;20370;-73
2023/09/09 08:39:55;;;;;;;134.85;128.05;;;;;;;26.66;46.11;101612.91;5036135;28;20056;-73
2023/09/09 08:42:35;;;;;;;129.38;122.85;;;;;;;26.69;46.05;101605.88;5040535;28;20025;-72
2023/09/09 08:45:11;;;;;;;146.90;137.45;;;;;;;26.73;46.16;101618.72;5041448;28;20029;-72
2023/09/09 08:47:39;;;;;;;139.48;131.75;;;;;;;26.77;46.21;101616.13;5027347;28;20037;-73
2023/09/09 08:50:06;;;;;;;143.85;136.15;;;;;;;26.81;46.45;101616.25;5050329;28;20428;-73
2023/09/09 08:52:32;;;;;;;133.48;126.78;;;;;;;26.85;46.28;101618.03;5038840;28;20033;-73
2023/09/09 08:54:57;;;;;;;134.05;127.47;;;;;;;26.90;46.34;101620.63;5036940;28;20037;-73
2023/09/09 08:57:25;;;;;;;148.23;139.50;;;;;;;26.97;46.28;101617.34;5041143;28;20032;-72
2023/09/09 08:59:51;;;;;;;138.77;131.20;;;;;;;27.01;46.42;101623.03;5048481;28;20094;-73
2023/09/09 09:02:17;;;;;;;151.82;142.23;;;;;;;27.06;46.23;101620.88;5046792;28;20053;-73
2023/09/09 09:04:43;;;;;;;134.70;128.10;;;;;;;27.12;46.38;101627.06;5049214;28;20037;-73
2023/09/09 09:07:08;;;;;;;149.18;141.05;;;;;;;27.16;46.55;101619.69;5048796;28;20041;-73
2023/09/09 09:09:34;;;;;;;148.90;140.25;;;;;;;27.19;46.31;101624.63;5050494;28;20037;-72
2023/09/09 09:12:02;;;;;;;143.88;136.50;;;;;;;27.23;46.32;101630.28;5044792;28;20022;-73
2023/09/09 09:14:28;;;;;;;138.27;131.65;;;;;;;27.26;46.67;101624.06;5045495;28;20064;-72
2023/09/09 09:16:55;;;;;;;147.95;139.45;;;;;;;27.31;46.68;101626.66;5041320;28;20045;-74
2023/09/09 09:19:30;;;;;;;145.73;137.70;;;;;;;27.33;46.74;101627.94;5047071;28;20061;-73
2023/09/09 09:21:56;;;;;;;137.20;130.23;;;;;;;27.36;46.49;101629.22;5043914;28;20061;-73
2023/09/09 09:24:25;;;;;;;140.43;133.68;;;;;;;27.41;46.74;101637.34;5049334;28;20472;-73
2023/09/09 09:26:51;;;;;;;146.57;138.68;;;;;;;27.44;46.61;101630.31;5040150;28;20087;-73
2023/09/09 09:29:16;;;;;;;144.63;137.05;;;;;;;27.48;46.79;101634.06;5042021;28;20033;-73
2023/09/09 09:31:41;;;;;;;151.55;143.43;;;;;;;27.50;46.85;101627.03;5044573;28;20045;-73
2023/09/09 09:34:10;;;;;;;144.43;136.95;;;;;;;27.54;47.23;101633.53;5039843;28;20108;-72
2023/09/09 09:36:36;;;;;;;139.90;133.18;;;;;;;27.57;46.79;101632.84;5039132;28;20052;-72
2023/09/09 09:39:10;;;;;;;153.63;144.75;;;;;;;27.61;47.04;101624.66;5041135;28;20370;-73
2023/09/09 09:41:38;;;;;;;145.95;138.55;;;;;;;27.63;46.84;101623.16;5042458;28;20031;-72
2023/09/09 09:44:16;;;;;;;157.88;149.13;;;;;;;27.66;46.81;101626.44;5036674;28;20143;-72
2023/09/09 09:46:41;;;;;;;156.07;147.15;;;;;;;27.71;46.92;101631.78;5034094;28;20037;-72
2023/09/09 09:49:08;;;;;;;162.38;152.75;;;;;;;27.73;46.68;101616.41;5030903;28;20091;-72
2023/09/09 09:51:43;;;;;;;154.57;146.50;;;;;;;27.76;47.19;101628.81;5039318;28;20029;-72
2023/09/09 09:54:09;;;;;;;156.00;147.10;;;;;;;27.80;46.99;101618.66;5041170;28;20029;-72
2023/09/09 09:56:38;;;;;;;142.70;135.65;;;;;;;27.83;47.04;101620.78;5050340;28;20366;-73
2023/09/09 09:59:05;;;;;;;147.38;139.77;;;;;;;27.87;46.97;101626.44;5038216;28;20111;-72
2023/09/09 10:01:32;;;;;;;149.10;141.70;;;;;;;27.89;47.17;101627.75;5041026;28;20029;-72
2023/09/09 10:04:09;;;;;;;146.27;138.85;;;;;;;27.92;47.02;101620.69;5042253;28;20084;-73
2023/09/09 10:06:38;;;;;;;149.85;142.38;;;;;;;27.96;47.20;101616.09;5053990;28;20052;-72
2023/09/09 10:09:13;;;;;;;158.98;151.25;;;;;;;27.98;46.95;101613.78;5050267;28;20036;-73
2023/09/09 10:11:57;;;;;;;149.98;142.13;;;;;;;28.01;46.93;101610.31;5051530;28;20044;-74
2023/09/09 10:14:25;;;;;;;143.63;136.73;;;;;;;28.04;47.22;101612.41;5035100;28;20493;-73
2023/09/09 10:16:52;;;;;;;140.75;134.07;;;;;;;28.09;46.90;101614.97;5043038;28;20025;-73
2023/09/09 10:19:19;;;;;;;147.45;140.57;;;;;;;28.10;46.76;101611.06;5054265;28;20065;-73
2023/09/09 10:21:44;;;;;;;145.32;138.75;;;;;;;28.14;46.77;101613.97;5048430;28;20044;-73
2023/09/09 10:24:10;;;;;;;143.10;136.60;;;;;;;28.17;46.77;101619.66;5044128;28;20033;-73
2023/09/09 10:26:37;;;;;;;146.57;139.77;;;;;;;28.20;46.84;101615.41;5054488;28;20057;-73
2023/09/09 10:29:03;;;;;;;153.07;146.18;;;;;;;28.25;47.00;101609.63;5036580;28;20496;-73
2023/09/09 10:31:30;;;;;;;146.75;139.85;;;;;;;28.27;46.90;101610.06;5052353;28;20049;-73
2023/09/09 10:33:58;;;;;;;145.52;138.45;;;;;;;28.30;46.47;101609.41;5042891;28;20035;-73
2023/09/09 10:36:25;;;;;;;142.43;135.70;;;;;;;28.33;46.72;101608.72;5052821;28;20428;-73
2023/09/09 10:38:55;;;;;;;143.57;137.07;;;;;;;28.37;46.67;101609.63;5036454;28;20098;-73
2023/09/09 10:41:21;;;;;;;143.98;137.57;;;;;;;28.39;46.54;101615.66;5050553;28;20458;-73
2023/09/09 10:43:46;;;;;;;141.15;134.70;;;;;;;28.43;46.72;101605.50;5034089;28;20040;-73
2023/09/09 10:46:12;;;;;;;143.77;136.98;;;;;;;28.45;46.79;101605.16;5044559;28;20030;-73
2023/09/09 10:48:38;;;;;;;145.73;139.32;;;;;;;28.49;46.79;101606.13;5033537;28;20108;-73
2023/09/09 10:51:06;;;;;;;152.23;145.43;;;;;;;28.53;46.87;101603.47;5053549;28;20135;-73